GPNPE EGSR-EGSU
Flight info
| Callsign | GPNPE |
|---|---|
| Flight time | N/A |
| Altitude | 3500 |
| Route | EGSR / EGSU |
| Aircraft | SR22/L-VGD/A |
Departure
| Time | 2026-04-19 17:03 |
|---|---|
| Airport | Earls Colne Airfield (EGSR) |
Arrival
| Time | N/A |
|---|---|
| Airport | Duxford Aerodrome (EGSU) |
| Time | Latitude | Longitude | Altitude | Speed | Heading |
|---|---|---|---|---|---|
| 2026-04-19 17:01 | 51.91210 | 0.67776 | 236 ft | 0 kts | 11° |
| 2026-04-19 17:02 | 51.91258 | 0.67795 | 237 ft | 6 kts | 47° |
| 2026-04-19 17:02 | 51.91382 | 0.68148 | 233 ft | 75 kts | 58° |
| 2026-04-19 17:02 | 51.91680 | 0.69026 | 463 ft | 91 kts | 57° |
| 2026-04-19 17:03 | 51.92070 | 0.69720 | 695 ft | 84 kts | 359° |
| 2026-04-19 17:03 | 51.92504 | 0.69156 | 933 ft | 92 kts | 285° |
| 2026-04-19 17:03 | 51.92359 | 0.68119 | 1167 ft | 95 kts | 260° |
| 2026-04-19 17:03 | 51.92133 | 0.67049 | 1296 ft | 107 kts | 252° |
| 2026-04-19 17:04 | 51.91858 | 0.65889 | 1426 ft | 111 kts | 265° |
| 2026-04-19 17:04 | 51.92054 | 0.64703 | 1506 ft | 109 kts | 302° |
| 2026-04-19 17:04 | 51.92422 | 0.63693 | 1632 ft | 106 kts | 306° |
| 2026-04-19 17:04 | 51.92821 | 0.62656 | 1630 ft | 110 kts | 305° |
| 2026-04-19 17:05 | 51.93332 | 0.61775 | 1631 ft | 109 kts | 332° |
| 2026-04-19 17:05 | 51.94029 | 0.61238 | 1633 ft | 112 kts | 334° |
| 2026-04-19 17:05 | 51.94718 | 0.60685 | 1627 ft | 117 kts | 334° |
| 2026-04-19 17:06 | 51.95310 | 0.60197 | 1633 ft | 117 kts | 334° |
| 2026-04-19 17:06 | 51.96041 | 0.59565 | 1633 ft | 121 kts | 333° |
| 2026-04-19 17:07 | 51.96777 | 0.58896 | 1630 ft | 121 kts | 333° |
| 2026-04-19 17:07 | 51.97507 | 0.58222 | 1635 ft | 120 kts | 333° |
| 2026-04-19 17:07 | 51.98238 | 0.57542 | 1629 ft | 122 kts | 332° |
| 2026-04-19 17:07 | 51.98980 | 0.56861 | 1629 ft | 123 kts | 332° |
| 2026-04-19 17:08 | 51.99724 | 0.56183 | 1623 ft | 122 kts | 332° |
| 2026-04-19 17:08 | 52.00463 | 0.55513 | 1617 ft | 121 kts | 332° |
| 2026-04-19 17:08 | 52.01193 | 0.54847 | 1619 ft | 120 kts | 332° |
| 2026-04-19 17:08 | 52.01927 | 0.54204 | 1623 ft | 120 kts | 332° |
| 2026-04-19 17:09 | 52.02667 | 0.53567 | 1623 ft | 120 kts | 333° |
| 2026-04-19 17:09 | 52.03399 | 0.52917 | 1613 ft | 119 kts | 332° |
| 2026-04-19 17:09 | 52.04122 | 0.52267 | 1617 ft | 119 kts | 332° |
| 2026-04-19 17:09 | 52.04848 | 0.51627 | 1627 ft | 117 kts | 332° |
| 2026-04-19 17:10 | 52.05516 | 0.51052 | 1812 ft | 104 kts | 332° |
| 2026-04-19 17:10 | 52.06104 | 0.50489 | 1990 ft | 95 kts | 311° |
| 2026-04-19 17:10 | 52.06260 | 0.49493 | 2171 ft | 89 kts | 284° |
| 2026-04-19 17:10 | 52.06368 | 0.48534 | 2346 ft | 85 kts | 285° |
| 2026-04-19 17:11 | 52.06489 | 0.47611 | 2529 ft | 81 kts | 290° |
| 2026-04-19 17:11 | 52.06603 | 0.47028 | 2659 ft | 79 kts | 292° |
| 2026-04-19 17:11 | 52.06763 | 0.46187 | 2842 ft | 76 kts | 292° |
| 2026-04-19 17:11 | 52.06921 | 0.45366 | 2948 ft | 79 kts | 294° |
| 2026-04-19 17:12 | 52.07088 | 0.44482 | 3028 ft | 85 kts | 294° |
| 2026-04-19 17:12 | 52.07275 | 0.43490 | 3040 ft | 98 kts | 294° |
| 2026-04-19 17:12 | 52.07500 | 0.42392 | 3048 ft | 106 kts | 293° |
| 2026-04-19 17:12 | 52.07750 | 0.41224 | 3039 ft | 112 kts | 294° |
| 2026-04-19 17:13 | 52.08012 | 0.40002 | 3034 ft | 116 kts | 294° |
| 2026-04-19 17:13 | 52.08280 | 0.38762 | 3040 ft | 117 kts | 294° |
| 2026-04-19 17:13 | 52.08556 | 0.37516 | 3037 ft | 117 kts | 294° |
| 2026-04-19 17:13 | 52.08830 | 0.36250 | 3037 ft | 120 kts | 294° |
| 2026-04-19 17:14 | 52.09106 | 0.34962 | 3039 ft | 121 kts | 294° |
| 2026-04-19 17:14 | 52.09385 | 0.33672 | 3041 ft | 121 kts | 294° |
| 2026-04-19 17:14 | 52.09672 | 0.32369 | 3036 ft | 124 kts | 294° |
| 2026-04-19 17:14 | 52.09959 | 0.31030 | 3037 ft | 125 kts | 294° |
| 2026-04-19 17:15 | 52.10242 | 0.29704 | 2940 ft | 129 kts | 294° |
| 2026-04-19 17:15 | 52.10551 | 0.28301 | 2790 ft | 134 kts | 293° |
| 2026-04-19 17:15 | 52.10894 | 0.26857 | 2647 ft | 136 kts | 294° |
| 2026-04-19 17:15 | 52.11259 | 0.25414 | 2496 ft | 139 kts | 299° |
| 2026-04-19 17:16 | 52.11715 | 0.24031 | 2354 ft | 141 kts | 301° |
| 2026-04-19 17:16 | 52.12175 | 0.22614 | 2201 ft | 141 kts | 301° |
| 2026-04-19 17:16 | 52.12627 | 0.21197 | 2047 ft | 140 kts | 300° |
| 2026-04-19 17:16 | 52.13077 | 0.19828 | 2029 ft | 134 kts | 302° |
| 2026-04-19 17:17 | 52.13501 | 0.18509 | 2029 ft | 130 kts | 301° |
| 2026-04-19 17:17 | 52.13926 | 0.17206 | 2022 ft | 130 kts | 301° |
| 2026-04-19 17:17 | 52.14349 | 0.15924 | 2022 ft | 128 kts | 301° |
| 2026-04-19 17:17 | 52.14770 | 0.14648 | 2021 ft | 128 kts | 301° |
| 2026-04-19 17:18 | 52.15182 | 0.13371 | 2023 ft | 126 kts | 302° |
| 2026-04-19 17:18 | 52.15572 | 0.12124 | 2024 ft | 121 kts | 301° |
| 2026-04-19 17:18 | 52.15946 | 0.10901 | 2020 ft | 120 kts | 301° |
| 2026-04-19 17:18 | 52.16310 | 0.09684 | 2025 ft | 121 kts | 301° |
| 2026-04-19 17:19 | 52.16692 | 0.08460 | 2029 ft | 122 kts | 301° |
| 2026-04-19 17:19 | 52.17089 | 0.07219 | 2036 ft | 125 kts | 300° |
| 2026-04-19 17:19 | 52.17492 | 0.05952 | 2037 ft | 125 kts | 301° |
| 2026-04-19 17:19 | 52.17863 | 0.04672 | 2035 ft | 126 kts | 291° |
| 2026-04-19 17:20 | 52.17716 | 0.03244 | 2019 ft | 138 kts | 240° |
| 2026-04-19 17:20 | 52.16902 | 0.02492 | 2023 ft | 143 kts | 186° |
| 2026-04-19 17:20 | 52.15961 | 0.02905 | 2026 ft | 138 kts | 155° |
| 2026-04-19 17:20 | 52.15112 | 0.03521 | 2020 ft | 130 kts | 155° |
| 2026-04-19 17:21 | 52.14303 | 0.04103 | 2025 ft | 123 kts | 156° |
| 2026-04-19 17:21 | 52.13533 | 0.04665 | 2024 ft | 119 kts | 156° |
| 2026-04-19 17:21 | 52.12738 | 0.04870 | 2017 ft | 116 kts | 187° |
| 2026-04-19 17:21 | 52.11951 | 0.05112 | 2021 ft | 116 kts | 162° |
| 2026-04-19 17:22 | 52.11810 | 0.05186 | 2029 ft | 115 kts | 163° |
| 2026-04-19 17:22 | 52.11100 | 0.05547 | 2048 ft | 115 kts | 164° |
| 2026-04-19 17:22 | 52.10347 | 0.05903 | 2052 ft | 110 kts | 168° |